Vremea acum in Galati - Romania

Vrei sa afli care e starea vremii acum in Galati - Romania? Dorim sa iti furnizam starea vremii pentru Galati - Romania. Starea vremii Galati - Romania pentru astazi.

Vremea acum in Galati

Temperatura: 21.7 °C

Se simte ca: 21.7 °C
Innorat: 18 %
Precipitatii: 0 %
Presiune atmosferica: 1026 hPa
Umiditate: 24%
Vizibilitate: 20 km
Vantul bate din NE cu 16.9 km/h

Evolutia vremii in Galati pe ore

Ora: 15:00
Parțial noros
Temperatura: 21.6°C
Sansa de precipitatii: 0%
Ora Descriere Temp Se simte Precipitatii Umiditate Vant
00:00Parțial noros12.5°11.3°0%50%NNE 12.6 KM/H
01:00Senin12.2°10.8°0%52%NNE 13 KM/H
02:00Parțial noros11.8°10.3°0%53%NNE 13.3 KM/H
03:00Senin11.4°9.8°0%55%NNE 13.3 KM/H
04:00Parțial noros11°9.4°0%56%NNE 13.3 KM/H
05:00Senin10.6°8.9°0%57%NNE 13.3 KM/H
06:00Parțial noros11.4°9.8°0%54%NNE 14 KM/H
07:00Senin12.2°10.6°0%51%NNE 15.1 KM/H
08:00Parțial noros13°11.5°0%49%NNE 15.8 KM/H
09:00Parțial noros15.2°14.2°0%42%NNE 16.6 KM/H
10:00Parțial noros17.3°16.8°0%35%NNE 16.9 KM/H
11:00Parțial noros19.5°19.5°0%28%NE 17.6 KM/H
12:00Parțial noros20.6°20.6°0%26%NE 17.3 KM/H
13:00Parțial noros21.7°21.7°0%24%NE 16.9 KM/H
14:00Parțial noros22.8°22.7°0%22%NE 16.6 KM/H
15:00Parțial noros21.6°21.6°0%25%NE 14.8 KM/H
16:00Parțial noros20.4°20.4°0%28%NE 13 KM/H
17:00Parțial noros19.2°19.2°0%32%NE 11.2 KM/H
18:00Soare17.7°17.5°0%38%ENE 10.8 KM/H
19:00Parțial noros16.1°15.8°0%44%ENE 10.4 KM/H
20:00Senin14.6°14.1°0%50%ENE 10.1 KM/H
21:00Senin14.1°13.6°0%53%ENE 9.4 KM/H
22:00Senin13.6°13.2°0%56%NE 8.6 KM/H
23:00Senin13.1°12.7°0%59%NNE 7.9 KM/H